Currently N/A°F in Moreno Valley, California, USA
N/A°F Alert
N/A°F / N/A°F
N/A
N/A
Wednesday, November 20, 2019 1:53 AM PST

Moreno Valley, California Weather Summary
Last 36 Hours

Temperature Winds Hourly Humidity Dewpoint
Time Report Norm Report Norm Max Gusts Precip. Rpt. Norm Rpt. Norm Pressure
1Tue 10:20 AM  75.5°F  69°F  4 mph SE  3 mph  11 mph  0.00"  34%  42%  44°F  44°F  29.79"
Tue 10:00 AM  76.6°F  68°F  4 mph S  3 mph  13 mph  0.00"  31%  44%  43°F  44°F  29.80"
2Tue 09:50 AM  77.0°F  67°F  8 mph SE  3 mph  12 mph  ----  30%  45%  42°F  44°F  29.80"
Tue 09:00 AM  75.4°F  65°F  6 mph SE  2 mph  13 mph  0.00"  26%  49%  36°F  44°F  29.82"
Tue 08:00 AM  68.9°F  61°F  calm  1 mph  3 mph  0.00"  31%  54%  35°F  43°F  29.82"
Tue 07:00 AM  71.0°F  55°F  calm  1 mph  9 mph  0.00"  26%  59%  33°F  41°F  29.82"
Tue 06:00 AM  67.1°F  54°F  5 mph E  1 mph  7 mph  0.00"  29%  59%  33°F  40°F  29.80"
Tue 05:00 AM  70.0°F  55°F  calm  1 mph  11 mph  0.00"  25%  59%  31°F  40°F  29.80"
Tue 04:00 AM  64.8°F  55°F  calm  1 mph  none  0.00"  30%  59%  31°F  40°F  29.80"
Tue 03:00 AM  64.9°F  55°F  calm  1 mph  2 mph  0.00"  30%  59%  31°F  41°F  29.80"
3Tue 02:36 AM  63.9°F  55°F  calm  1 mph  none  ----  30%  59%  31°F  41°F  29.80"
Tue 02:00 AM  65.3°F  56°F  calm  1 mph  4 mph  0.00"  30%  59%  32°F  41°F  29.82"
Tue 01:00 AM  66.0°F  56°F  calm  1 mph  6 mph  0.00"  30%  59%  33°F  41°F  29.84"
Tue 12:00 AM  67.4°F  57°F  calm  1 mph  11 mph  0.00"  30%  58%  33°F  42°F  29.85"
Mon 11:00 PM  66.2°F  57°F  calm  1 mph  6 mph  0.00"  30%  59%  32°F  42°F  29.88"
Mon 10:00 PM  69.0°F  58°F  calm  1 mph  11 mph  0.00"  27%  57%  32°F  42°F  29.87"
Mon 09:00 PM  68.7°F  59°F  5 mph SE  1 mph  7 mph  0.00"  26%  56%  31°F  42°F  29.87"
Mon 08:00 PM  75.0°F  60°F  calm  1 mph  8 mph  0.00"  19%  54%  29°F  42°F  29.86"
Mon 07:00 PM  75.9°F  62°F  1 mph NE  2 mph  8 mph  0.00"  18%  51%  28°F  43°F  29.88"
Mon 06:00 PM  76.1°F  64°F  calm  2 mph  10 mph  0.00"  18%  48%  28°F  43°F  29.88"
Mon 05:00 PM  80.0°F  66°F  6 mph E  2 mph  13 mph  0.00"  15%  43%  26°F  42°F  29.86"
Mon 04:00 PM  86.9°F  71°F  6 mph SE  4 mph  9 mph  0.00"  11%  37%  24°F  42°F  29.85"
Mon 03:00 PM  89.8°F  74°F  4 mph E  4 mph  8 mph  0.00"  10%  33%  23°F  42°F  29.85"
Mon 02:01 PM  89.5°F  75°F  calm  4 mph  9 mph  0.00"  10%  32%  22°F  42°F  29.85"
Mon 01:03 PM  89.6°F  74°F  calm  4 mph  9 mph  0.00"  10%  32%  24°F  42°F  29.87"
Mon 12:03 PM  87.3°F  73°F  3 mph SW  3 mph  12 mph  0.00"  11%  34%  24°F  42°F  29.91"
Mon 11:04 AM  85.2°F  71°F  8 mph SE  3 mph  14 mph  0.00"  12%  38%  25°F  43°F  29.95"
Mon 10:00 AM  82.2°F  68°F  2 mph SE  3 mph  10 mph  0.00"  15%  43%  29°F  44°F  29.98"
Mon 09:00 AM  78.4°F  65°F  2 mph S  2 mph  9 mph  0.00"  20%  48%  32°F  44°F  29.99"
Mon 08:01 AM  76.6°F  61°F  5 mph E  1 mph  10 mph  0.00"  17%  53%  27°F  44°F  30.00"
Mon 07:01 AM  65.0°F  56°F  calm  1 mph  none  0.00"  27%  58%  29°F  41°F  29.99"
Mon 06:01 AM  62.3°F  55°F  calm  1 mph  6 mph  0.00"  28%  58%  28°F  40°F  29.98"
Mon 05:00 AM  61.4°F  55°F  calm  1 mph  6 mph  0.00"  30%  58%  29°F  40°F  29.97"
Mon 04:00 AM  61.9°F  55°F  calm  1 mph  8 mph  0.00"  29%  58%  28°F  40°F  29.98"
Mon 03:00 AM  61.3°F  56°F  3 mph NE  1 mph  none  0.00"  33%  58%  31°F  41°F  29.98"
Mon 02:00 AM  63.0°F  56°F  calm  1 mph  6 mph  0.00"  30%  58%  29°F  41°F  30.00"
Mon 01:01 AM  63.9°F  56°F  calm  1 mph  7 mph  0.00"  31%  58%  31°F  41°F  30.00"
Mon 12:00 AM  63.0°F  57°F  calm  1 mph  2 mph  0.00"  31%  57%  31°F  41°F  30.01"
Sun 11:00 PM  66.0°F  57°F  calm  1 mph  4 mph  0.00"  28%  58%  31°F  42°F  30.01"

  1. Current weather data. No green row appears if the current weather data is also the high or low for the current day.
  2. High temperature for the current day.
  3. Low temperature for the current day.

The Moreno Valley, California weather pages are a service of WeatherCurrents. Moreno Valley is located in Southern California's Inland Empire, east of Riverside and north of Perris, along the State Route 60 freeway.
Copyright ©2019  WeatherCurrents. All rights reserved. - Submit questions and comments - Privacy Policy

This page automatically refreshes every 10 minutes.